createdAt,value
2022-11-04T00:01:33.403Z,14.40
2022-11-04T00:04:02.038Z,13.57
2022-11-04T00:06:31.236Z,13.80
2022-11-04T00:08:58.939Z,13.57
2022-11-04T00:11:45.831Z,13.48
2022-11-04T00:14:15.852Z,13.40
2022-11-04T00:17:01.547Z,13.82
2022-11-04T00:19:28.714Z,13.57
2022-11-04T00:22:14.398Z,14.18
2022-11-04T00:24:43.698Z,14.77
2022-11-04T00:27:33.348Z,14.40
2022-11-04T00:30:00.624Z,13.70
2022-11-04T00:32:46.139Z,14.50
2022-11-04T00:35:13.763Z,14.02
2022-11-04T00:37:42.715Z,13.20
2022-11-04T00:40:11.431Z,15.07
2022-11-04T00:42:38.627Z,14.65
2022-11-04T00:45:06.044Z,15.57
2022-11-04T00:47:32.765Z,14.20
2022-11-04T00:49:59.268Z,13.98
2022-11-04T00:52:28.794Z,14.20
2022-11-04T00:54:55.349Z,14.13
2022-11-04T00:57:21.843Z,13.77
2022-11-04T00:59:51.900Z,13.65
2022-11-04T01:02:20.721Z,14.13
2022-11-04T01:04:48.037Z,14.55
2022-11-04T01:07:14.559Z,15.15
2022-11-04T01:09:43.613Z,13.68
2022-11-04T01:14:36.615Z,13.57
2022-11-04T01:17:07.631Z,12.55
2022-11-04T01:19:34.202Z,14.55
2022-11-04T01:22:03.190Z,13.48
2022-11-04T01:27:00.986Z,13.27
2022-11-04T01:31:53.864Z,14.30
2022-11-04T01:34:23.010Z,13.50
2022-11-04T01:36:51.983Z,14.98
2022-11-04T01:39:18.472Z,15.43
2022-11-04T01:41:44.973Z,16.00
2022-11-04T01:44:45.533Z,15.20
2022-11-04T01:47:18.556Z,14.63
2022-11-04T01:49:50.617Z,13.77
2022-11-04T01:52:28.973Z,14.32
2022-11-04T01:55:02.093Z,14.63
2022-11-04T01:57:40.218Z,15.32
2022-11-04T02:00:08.850Z,15.45
2022-11-04T02:02:47.002Z,15.30
2022-11-04T02:05:13.608Z,14.73
2022-11-04T02:07:40.613Z,14.88
2022-11-04T02:10:10.339Z,15.18
2022-11-04T02:12:52.032Z,15.57
2022-11-04T02:15:29.947Z,14.63
2022-11-04T02:18:14.591Z,15.65
2022-11-04T02:21:07.220Z,16.83
2022-11-04T02:24:04.782Z,15.23
2022-11-04T02:26:34.316Z,16.17
2022-11-04T02:29:16.053Z,15.63
2022-11-04T02:31:54.012Z,18.15
2022-11-04T02:34:44.862Z,16.70
2022-11-04T02:37:15.297Z,19.50
2022-11-04T02:40:09.159Z,18.08
2022-11-04T02:42:39.701Z,17.63
2022-11-04T02:45:41.534Z,16.20
2022-11-04T02:48:31.641Z,16.23
2022-11-04T02:51:19.854Z,16.25
2022-11-04T02:54:18.285Z,17.23
2022-11-04T02:56:50.094Z,17.10
2022-11-04T02:59:39.325Z,16.42
2022-11-04T03:02:11.015Z,16.45
2022-11-04T03:04:42.325Z,16.02
2022-11-04T03:07:17.105Z,17.17
2022-11-04T03:09:49.913Z,14.70
2022-11-04T03:12:43.603Z,16.30
2022-11-04T03:15:24.067Z,15.75
2022-11-04T03:18:12.279Z,16.42
2022-11-04T03:20:45.447Z,16.63
2022-11-04T03:23:12.854Z,15.70
2022-11-04T03:25:45.951Z,17.45
2022-11-04T03:28:21.177Z,15.82
2022-11-04T03:33:27.443Z,17.20
2022-11-04T03:35:56.811Z,16.35
2022-11-04T03:38:23.446Z,15.88
2022-11-04T03:40:53.271Z,17.08
2022-11-04T03:43:25.733Z,17.92
2022-11-04T03:45:57.267Z,18.58
2022-11-04T03:48:24.091Z,17.73
2022-11-04T03:50:51.319Z,17.75
2022-11-04T03:53:27.421Z,17.58
2022-11-04T03:56:20.772Z,17.88
2022-11-04T03:59:28.677Z,18.55
2022-11-04T04:02:00.796Z,17.00
2022-11-04T04:05:06.931Z,16.92
2022-11-04T04:10:42.098Z,16.67
2022-11-04T04:13:34.963Z,17.55
2022-11-04T04:16:10.543Z,17.95
2022-11-04T04:18:52.646Z,18.15
2022-11-04T04:21:31.091Z,18.80
2022-11-04T04:24:23.280Z,18.58
2022-11-04T04:27:10.812Z,15.75
2022-11-04T04:32:05.515Z,18.30
2022-11-04T04:34:35.838Z,17.27
2022-11-04T04:37:15.761Z,17.60
2022-11-04T04:40:04.403Z,17.17
2022-11-04T04:42:53.613Z,17.25
2022-11-04T04:45:42.403Z,18.42
2022-11-04T04:48:13.159Z,18.92
2022-11-04T04:50:48.460Z,21.20
2022-11-04T04:53:15.788Z,19.65
2022-11-04T04:55:42.314Z,20.75
2022-11-04T04:58:11.392Z,20.30
2022-11-04T05:03:09.897Z,21.88
2022-11-04T05:05:36.623Z,19.90
2022-11-04T05:08:07.808Z,21.00
2022-11-04T05:10:35.037Z,22.20
2022-11-04T05:13:20.083Z,22.27
2022-11-04T05:15:53.619Z,21.25
2022-11-04T05:18:22.437Z,20.63
2022-11-04T05:20:51.400Z,19.95
2022-11-04T05:23:17.969Z,19.40
2022-11-04T05:25:46.705Z,19.83
2022-11-04T05:28:15.728Z,22.35
2022-11-04T05:30:44.718Z,21.73
2022-11-04T05:33:11.713Z,20.95
2022-11-04T05:35:38.629Z,20.95
2022-11-04T05:38:05.146Z,21.48
2022-11-04T05:40:31.785Z,22.98
2022-11-04T05:43:01.269Z,20.10
2022-11-04T05:45:28.677Z,22.00
2022-11-04T05:48:05.303Z,23.77
2022-11-04T05:50:35.639Z,22.75
2022-11-04T05:53:02.201Z,23.55
2022-11-04T05:55:28.725Z,21.88
2022-11-04T05:57:55.374Z,23.73
2022-11-04T06:00:24.089Z,20.33
2022-11-04T06:02:50.645Z,21.95
2022-11-04T06:05:19.756Z,23.52
2022-11-04T06:10:15.195Z,22.98
2022-11-04T06:12:44.700Z,23.55
2022-11-04T06:15:13.445Z,24.42
2022-11-04T06:17:44.589Z,25.13
2022-11-04T06:20:13.675Z,24.05
2022-11-04T06:22:40.718Z,24.45
2022-11-04T06:25:07.758Z,23.80
2022-11-04T06:27:39.032Z,25.15
2022-11-04T06:30:06.022Z,25.83
2022-11-04T06:32:37.337Z,26.08
2022-11-04T06:35:08.914Z,25.60
2022-11-04T06:37:41.177Z,25.83
2022-11-04T06:40:11.114Z,24.08
2022-11-04T06:42:37.656Z,25.27
2022-11-04T06:45:06.910Z,24.13
2022-11-04T06:47:33.377Z,28.17
2022-11-04T06:50:02.397Z,25.05
2022-11-04T06:52:28.914Z,24.30
2022-11-04T06:54:55.631Z,24.80
2022-11-04T06:57:24.569Z,24.85
2022-11-04T06:59:53.750Z,23.13
2022-11-04T07:05:07.435Z,22.52
2022-11-04T07:07:34.517Z,23.95
2022-11-04T07:10:01.107Z,23.42
2022-11-04T07:12:27.618Z,23.45
2022-11-04T07:14:56.724Z,23.92
2022-11-04T07:19:52.179Z,22.85
2022-11-04T07:22:18.671Z,22.35
2022-11-04T07:24:47.278Z,23.13
2022-11-04T07:27:16.313Z,24.23
2022-11-04T07:29:43.016Z,21.77
2022-11-04T07:32:15.665Z,21.65
2022-11-04T07:34:55.995Z,22.45
2022-11-04T07:37:22.493Z,23.48
2022-11-04T07:39:51.553Z,21.92
2022-11-04T07:44:56.761Z,24.63
2022-11-04T07:47:25.517Z,22.17
2022-11-04T07:49:52.166Z,21.90
2022-11-04T07:52:30.924Z,22.23
2022-11-04T07:55:24.101Z,23.60
2022-11-04T07:57:50.740Z,21.35
2022-11-04T08:00:17.879Z,21.17
2022-11-04T08:02:46.673Z,25.88
2022-11-04T08:05:24.590Z,21.45
2022-11-04T08:07:51.335Z,22.30
2022-11-04T08:10:20.320Z,22.08
2022-11-04T08:12:52.861Z,21.77
2022-11-04T08:15:22.089Z,22.17
2022-11-04T08:17:48.628Z,21.60
2022-11-04T08:20:17.838Z,23.67
2022-11-04T08:22:44.342Z,22.75
2022-11-04T08:31:17.167Z,23.73
2022-11-04T08:34:10.013Z,21.63
2022-11-04T08:36:40.729Z,21.80
2022-11-04T08:39:11.553Z,22.25
2022-11-04T08:41:49.712Z,23.05
2022-11-04T08:51:56.784Z,20.80
2022-11-04T08:54:24.717Z,20.00
2022-11-04T08:56:54.339Z,21.20
2022-11-04T08:59:24.994Z,21.10
2022-11-04T09:01:51.657Z,21.50
2022-11-04T09:04:20.842Z,21.33
2022-11-04T09:09:16.739Z,20.80
2022-11-04T09:11:54.132Z,21.73
2022-11-04T09:14:23.992Z,20.90
2022-11-04T09:17:02.255Z,21.35
2022-11-04T09:19:28.891Z,22.20
2022-11-04T09:21:55.471Z,23.90
2022-11-04T09:24:21.990Z,23.13
2022-11-04T09:26:50.897Z,23.95
2022-11-04T09:29:27.432Z,21.77
2022-11-04T09:31:58.312Z,23.45
2022-11-04T09:34:27.358Z,22.20
2022-11-04T09:37:05.397Z,22.60
2022-11-04T09:39:34.663Z,22.05
2022-11-04T09:42:38.407Z,22.63
2022-11-04T09:45:27.568Z,22.27
2022-11-04T09:48:02.938Z,22.75
2022-11-04T09:50:41.457Z,21.38
2022-11-04T09:53:35.017Z,22.10
2022-11-04T09:56:07.299Z,23.75
2022-11-04T09:58:40.599Z,23.90
2022-11-04T10:01:28.203Z,21.95
2022-11-04T10:04:32.475Z,24.45
2022-11-04T10:07:25.989Z,24.90
2022-11-04T10:10:06.475Z,24.05
2022-11-04T10:12:42.154Z,24.80
2022-11-04T10:15:42.874Z,26.13
2022-11-04T10:18:34.832Z,26.02
2022-11-04T10:21:19.510Z,26.67
2022-11-04T10:24:21.960Z,25.23
2022-11-04T10:27:04.576Z,24.92
2022-11-04T10:29:41.011Z,23.45
2022-11-04T10:35:39.759Z,25.10
2022-11-04T10:41:54.725Z,26.40
2022-11-04T10:44:23.605Z,26.98
2022-11-04T10:47:24.428Z,24.42
2022-11-04T10:50:49.513Z,25.55
2022-11-04T10:53:28.208Z,24.50
2022-11-04T10:56:02.474Z,25.58
2022-11-04T10:58:43.075Z,23.75
2022-11-04T11:01:29.563Z,23.70
2022-11-04T11:04:33.341Z,25.48
2022-11-04T11:09:53.387Z,26.23
2022-11-04T11:12:49.944Z,24.98
2022-11-04T11:15:30.184Z,24.67
2022-11-04T11:21:21.449Z,25.95
2022-11-04T11:23:58.518Z,24.20
2022-11-04T11:26:34.176Z,24.80
2022-11-04T11:29:23.816Z,26.58
2022-11-04T11:35:04.314Z,27.33
2022-11-04T11:37:35.456Z,26.45
2022-11-04T11:40:02.029Z,26.23
2022-11-04T11:42:28.566Z,27.92
2022-11-04T11:44:58.178Z,25.85
2022-11-04T11:47:44.565Z,27.52
2022-11-04T11:50:52.586Z,25.95
2022-11-04T11:53:24.436Z,26.42
2022-11-04T11:56:10.302Z,26.15
2022-11-04T12:10:49.638Z,25.58
2022-11-04T12:13:26.162Z,24.38
2022-11-04T12:16:12.302Z,28.23
2022-11-04T12:19:03.295Z,25.88
2022-11-04T12:21:36.789Z,27.38
2022-11-04T12:24:22.025Z,29.05
2022-11-04T12:27:13.039Z,26.67
2022-11-04T12:29:39.527Z,28.95
2022-11-04T12:32:19.152Z,27.75
2022-11-04T12:35:23.113Z,27.83
2022-11-04T12:41:59.420Z,26.35
2022-11-04T12:44:37.673Z,27.30
2022-11-04T12:47:25.950Z,28.38
2022-11-04T12:50:32.433Z,29.15
2022-11-04T12:53:21.604Z,29.13
2022-11-04T12:55:57.996Z,29.23
2022-11-04T12:58:46.400Z,28.15
2022-11-04T13:01:24.902Z,29.33
2022-11-04T13:04:00.721Z,28.75
2022-11-04T13:06:51.584Z,29.55
2022-11-04T13:10:05.489Z,29.63
2022-11-04T13:13:03.894Z,25.80
2022-11-04T13:15:38.015Z,28.38
2022-11-04T13:18:08.759Z,26.58
2022-11-04T13:20:45.540Z,28.17
2022-11-04T13:23:22.663Z,27.55
2022-11-04T13:29:39.892Z,24.42
2022-11-04T13:32:15.554Z,26.55
2022-11-04T13:35:05.882Z,28.50
2022-11-04T13:38:24.721Z,28.95
2022-11-04T13:41:20.342Z,27.85
2022-11-04T13:43:53.542Z,27.17
2022-11-04T13:46:28.548Z,28.00
2022-11-04T13:49:03.763Z,27.20
2022-11-04T13:57:54.738Z,26.35
2022-11-04T14:00:29.743Z,27.70
2022-11-04T14:03:22.410Z,28.13
2022-11-04T14:06:05.039Z,28.42
2022-11-04T14:08:32.737Z,29.33
2022-11-04T14:11:03.045Z,28.90
2022-11-04T14:13:38.902Z,28.23
2022-11-04T14:16:16.087Z,28.33
2022-11-04T14:18:46.959Z,28.08
2022-11-04T14:21:13.535Z,30.75
2022-11-04T14:23:46.206Z,29.80
2022-11-04T14:26:20.894Z,28.58
2022-11-04T14:29:03.627Z,32.15
2022-11-04T14:31:42.859Z,28.63
2022-11-04T14:34:23.570Z,29.60
2022-11-04T14:37:02.035Z,31.75
2022-11-04T14:39:35.806Z,28.63
2022-11-04T14:42:07.072Z,29.55
2022-11-04T14:44:37.874Z,28.73
2022-11-04T14:47:25.524Z,29.85
2022-11-04T14:50:23.388Z,27.92
2022-11-04T14:52:55.165Z,29.13
2022-11-04T14:55:32.263Z,30.70
2022-11-04T14:58:28.280Z,30.08
2022-11-04T15:00:58.687Z,28.48
2022-11-04T15:06:40.234Z,29.63
2022-11-04T15:09:29.173Z,31.00
2022-11-04T15:12:30.828Z,28.23
2022-11-04T15:15:00.638Z,29.45
2022-11-04T15:17:32.721Z,28.50
2022-11-04T15:20:05.211Z,25.67
2022-11-04T15:22:34.384Z,27.52
2022-11-04T15:27:30.132Z,27.50
2022-11-04T15:30:00.755Z,27.42
2022-11-04T15:32:29.821Z,26.20
2022-11-04T15:34:57.756Z,26.50
2022-11-04T15:37:26.077Z,27.55
2022-11-04T15:39:56.651Z,25.50
2022-11-04T15:42:40.763Z,23.92
2022-11-04T15:45:22.771Z,24.35
2022-11-04T15:48:09.676Z,23.50
2022-11-04T15:50:52.853Z,23.88
2022-11-04T15:53:21.955Z,22.95
2022-11-04T15:58:18.667Z,23.17
2022-11-04T16:00:53.588Z,23.52
2022-11-04T16:03:24.266Z,22.77
2022-11-04T16:09:03.809Z,22.48
2022-11-04T16:11:30.534Z,21.83
2022-11-04T16:14:26.978Z,19.75
2022-11-04T16:16:54.805Z,21.63
2022-11-04T16:19:28.223Z,20.92
2022-11-04T16:22:09.734Z,20.20
2022-11-04T16:24:39.837Z,20.08
2022-11-04T16:27:14.055Z,20.83
2022-11-04T16:29:47.798Z,20.05
2022-11-04T16:32:26.955Z,20.55
2022-11-04T16:34:58.261Z,20.08
2022-11-04T16:37:30.157Z,21.45
2022-11-04T16:39:56.736Z,19.20
2022-11-04T16:42:23.860Z,22.27
2022-11-04T16:44:58.175Z,20.55
2022-11-04T16:47:29.037Z,20.15
2022-11-04T16:50:03.806Z,20.48
2022-11-04T16:52:30.828Z,20.55
2022-11-04T16:54:57.403Z,20.33
2022-11-04T16:57:27.359Z,19.85
2022-11-04T16:59:57.559Z,20.88
2022-11-04T17:02:45.142Z,20.15
2022-11-04T17:05:13.920Z,22.40
2022-11-04T17:07:53.590Z,19.48
2022-11-04T17:10:26.366Z,17.00
2022-11-04T17:12:55.516Z,18.85
2022-11-04T17:15:33.499Z,18.05
2022-11-04T17:18:00.098Z,18.85
2022-11-04T17:20:30.988Z,21.05
2022-11-04T17:23:05.963Z,19.60
2022-11-04T17:25:32.579Z,20.35
2022-11-04T17:27:59.102Z,17.70
2022-11-04T17:30:26.258Z,18.88
2022-11-04T17:32:52.802Z,19.25
2022-11-04T17:35:22.334Z,20.33
2022-11-04T17:41:53.692Z,18.90
2022-11-04T17:44:22.842Z,17.73
2022-11-04T17:46:51.773Z,17.55
2022-11-04T17:49:22.143Z,18.40
2022-11-04T17:51:53.563Z,19.45
2022-11-04T17:54:28.770Z,17.63
2022-11-04T17:59:22.798Z,16.52
2022-11-04T18:01:52.017Z,16.50
2022-11-04T18:04:21.786Z,18.40
2022-11-04T18:06:50.908Z,18.50
2022-11-04T18:09:20.722Z,19.35
2022-11-04T18:12:15.715Z,18.73
2022-11-04T18:14:49.331Z,18.10
2022-11-04T18:17:16.127Z,18.05
2022-11-04T18:19:42.780Z,19.20
2022-11-04T18:22:09.326Z,19.48
2022-11-04T18:24:38.553Z,18.65
2022-11-04T18:27:05.156Z,18.95
2022-11-04T18:29:31.814Z,20.20
2022-11-04T18:32:04.543Z,18.38
2022-11-04T18:34:32.006Z,18.40
2022-11-04T18:37:00.373Z,17.80
2022-11-04T18:39:27.271Z,19.48
2022-11-04T18:41:59.823Z,20.00
2022-11-04T18:44:26.420Z,19.67
2022-11-04T18:46:55.542Z,19.48
2022-11-04T18:49:22.055Z,20.63
2022-11-04T18:51:48.566Z,20.63
2022-11-04T18:54:15.552Z,19.33
2022-11-04T18:56:46.131Z,21.15
2022-11-04T18:59:15.063Z,21.50
2022-11-04T19:01:42.500Z,19.00
2022-11-04T19:04:11.557Z,19.10
2022-11-04T19:06:41.827Z,18.42
2022-11-04T19:09:44.829Z,18.80
2022-11-04T19:12:20.001Z,18.60
2022-11-04T19:14:49.224Z,19.05
2022-11-04T19:17:15.874Z,18.65
2022-11-04T19:19:45.018Z,19.90
2022-11-04T19:22:12.422Z,17.60
2022-11-04T19:24:39.576Z,20.45
2022-11-04T19:27:06.831Z,19.77
2022-11-04T19:29:33.518Z,17.88
2022-11-04T19:32:00.747Z,18.58
2022-11-04T19:34:30.449Z,18.42
2022-11-04T19:36:57.055Z,19.77
2022-11-04T19:39:25.983Z,19.30
2022-11-04T19:42:13.716Z,19.17
2022-11-04T19:44:41.597Z,20.17
2022-11-04T19:47:09.244Z,21.00
2022-11-04T19:49:38.933Z,20.23
2022-11-04T19:52:09.311Z,20.58
2022-11-04T19:54:38.259Z,21.73
2022-11-04T19:57:05.386Z,21.38
2022-11-04T19:59:32.090Z,22.67
2022-11-04T20:01:58.762Z,21.35
2022-11-04T20:04:32.109Z,21.83
2022-11-04T20:07:05.696Z,20.50
2022-11-04T20:09:34.733Z,21.08
2022-11-04T20:14:54.902Z,20.45
2022-11-04T20:17:21.718Z,20.50
2022-11-04T20:19:50.539Z,21.42
2022-11-04T20:22:22.943Z,22.40
2022-11-04T20:24:51.852Z,22.63
2022-11-04T20:27:18.414Z,22.60
2022-11-04T20:29:46.492Z,21.00
2022-11-04T20:32:13.172Z,21.58
2022-11-04T20:34:46.730Z,24.95
2022-11-04T20:37:13.360Z,24.33
2022-11-04T20:39:39.950Z,24.98
2022-11-04T20:42:09.303Z,24.70
2022-11-04T20:44:39.132Z,24.48
2022-11-04T20:47:05.687Z,24.27
2022-11-04T20:49:32.361Z,23.90
2022-11-04T20:51:59.002Z,22.08
2022-11-04T20:54:25.944Z,24.15
2022-11-04T20:56:57.408Z,23.25
2022-11-04T20:59:27.532Z,23.90
2022-11-04T21:01:54.399Z,22.75
2022-11-04T21:04:25.729Z,21.75
2022-11-04T21:06:57.589Z,19.90
2022-11-04T21:09:24.094Z,21.70
2022-11-04T21:11:51.666Z,21.60
2022-11-04T21:14:23.660Z,21.17
2022-11-04T21:16:52.621Z,23.90
2022-11-04T21:19:21.997Z,20.83
2022-11-04T21:21:50.899Z,21.15
2022-11-04T21:24:17.610Z,20.48
2022-11-04T21:26:47.676Z,20.67
2022-11-04T21:29:19.798Z,21.77
2022-11-04T21:31:50.052Z,20.50
2022-11-04T21:34:16.672Z,20.67
2022-11-04T21:36:45.800Z,21.92
2022-11-04T21:39:15.635Z,22.05
2022-11-04T21:41:44.583Z,21.17
2022-11-04T21:44:15.604Z,23.05
2022-11-04T21:46:42.732Z,22.90
2022-11-04T21:49:14.227Z,22.42
2022-11-04T21:51:43.239Z,21.92
2022-11-04T21:56:43.961Z,21.17
2022-11-04T21:59:16.963Z,22.30
2022-11-04T22:01:45.095Z,19.58
2022-11-04T22:04:30.339Z,21.48
2022-11-04T22:06:57.725Z,23.05
2022-11-04T22:09:24.323Z,27.02
2022-11-04T22:11:53.432Z,33.30
2022-11-04T22:14:22.707Z,35.33
2022-11-04T22:16:51.935Z,37.90
2022-11-04T22:19:20.758Z,37.15
2022-11-04T22:21:49.553Z,34.47
2022-11-04T22:24:18.079Z,32.95
2022-11-04T22:26:47.932Z,34.55
2022-11-04T22:29:14.593Z,25.55
2022-11-04T22:31:42.775Z,30.88
2022-11-04T22:34:10.043Z,25.80
2022-11-04T22:36:37.927Z,26.48
2022-11-04T22:39:13.397Z,22.60
2022-11-04T22:41:46.468Z,20.83
2022-11-04T22:44:13.525Z,19.73
2022-11-04T22:46:43.020Z,18.88
2022-11-04T22:49:09.922Z,18.23
2022-11-04T22:51:36.435Z,18.92
2022-11-04T22:54:08.572Z,17.90
2022-11-04T22:56:36.545Z,18.40
2022-11-04T22:59:04.127Z,16.45
2022-11-04T23:01:34.094Z,16.05
2022-11-04T23:04:00.969Z,14.80
2022-11-04T23:06:32.498Z,14.90
2022-11-04T23:09:00.808Z,14.93
2022-11-04T23:11:47.444Z,14.32
2022-11-04T23:14:37.165Z,12.10
2022-11-04T23:17:39.943Z,13.35
2022-11-04T23:20:10.825Z,12.75
2022-11-04T23:22:55.908Z,13.00
2022-11-04T23:25:22.682Z,11.40
2022-11-04T23:28:10.773Z,11.00
2022-11-04T23:30:42.707Z,11.15
2022-11-04T23:33:15.251Z,9.27
2022-11-04T23:39:48.416Z,9.13
2022-11-04T23:42:23.215Z,8.35
2022-11-04T23:45:09.507Z,9.13
2022-11-04T23:48:02.986Z,7.50
2022-11-04T23:50:52.964Z,7.72
2022-11-04T23:53:40.406Z,7.80
2022-11-04T23:56:28.757Z,8.07
2022-11-04T23:59:14.025Z,8.95
